createdAt,value
2023-02-19T00:01:12.712Z,9.20
2023-02-19T00:03:39.751Z,9.24
2023-02-19T00:06:08.627Z,9.25
2023-02-19T00:08:36.467Z,9.15
2023-02-19T00:11:05.089Z,9.12
2023-02-19T00:13:31.692Z,8.70
2023-02-19T00:15:58.223Z,8.63
2023-02-19T00:18:24.732Z,8.60
2023-02-19T00:20:51.305Z,8.67
2023-02-19T00:23:17.784Z,8.64
2023-02-19T00:25:44.200Z,8.69
2023-02-19T00:28:10.622Z,8.57
2023-02-19T00:30:37.088Z,8.62
2023-02-19T00:33:03.670Z,8.71
2023-02-19T00:35:30.137Z,8.44
2023-02-19T00:37:56.538Z,8.29
2023-02-19T00:40:25.924Z,8.43
2023-02-19T00:42:53.000Z,8.60
2023-02-19T00:45:19.478Z,8.69
2023-02-19T00:47:46.017Z,8.74
2023-02-19T00:50:12.526Z,8.85
2023-02-19T00:52:39.010Z,8.49
2023-02-19T00:55:05.861Z,8.43
2023-02-19T00:57:32.278Z,8.46
2023-02-19T00:59:58.696Z,8.40
2023-02-19T01:02:26.839Z,8.44
2023-02-19T01:04:54.242Z,8.14
2023-02-19T01:07:20.686Z,7.87
2023-02-19T01:09:47.144Z,7.77
2023-02-19T01:12:13.632Z,7.89
2023-02-19T01:14:40.063Z,7.95
2023-02-19T01:17:06.611Z,7.86
2023-02-19T01:19:33.030Z,7.93
2023-02-19T01:21:59.457Z,7.92
2023-02-19T01:24:27.248Z,7.81
2023-02-19T01:26:54.388Z,7.86
2023-02-19T01:29:20.778Z,7.94
2023-02-19T01:31:47.292Z,7.73
2023-02-19T01:34:13.728Z,7.68
2023-02-19T01:36:40.908Z,7.70
2023-02-19T01:39:07.523Z,7.84
2023-02-19T01:41:39.456Z,7.78
2023-02-19T01:44:12.229Z,7.42
2023-02-19T01:46:40.536Z,7.49
2023-02-19T01:49:09.579Z,7.64
2023-02-19T01:51:39.609Z,7.57
2023-02-19T01:54:09.624Z,7.54
2023-02-19T01:56:40.393Z,7.63
2023-02-19T01:59:07.420Z,7.68
2023-02-19T02:01:34.247Z,7.52
2023-02-19T02:04:01.005Z,7.57
2023-02-19T02:06:31.633Z,7.71
2023-02-19T02:09:18.129Z,7.89
2023-02-19T02:11:48.933Z,7.88
2023-02-19T02:14:18.275Z,7.91
2023-02-19T02:16:57.497Z,7.80
2023-02-19T02:19:32.075Z,7.82
2023-02-19T02:22:07.822Z,7.79
2023-02-19T02:24:59.087Z,7.76
2023-02-19T02:27:43.737Z,7.78
2023-02-19T02:30:41.559Z,7.77
2023-02-19T02:33:28.690Z,7.80
2023-02-19T02:35:57.912Z,7.94
2023-02-19T02:38:29.174Z,7.80
2023-02-19T02:40:56.738Z,7.62
2023-02-19T02:43:24.252Z,7.80
2023-02-19T02:45:50.807Z,7.73
2023-02-19T02:48:17.571Z,7.66
2023-02-19T02:50:49.545Z,7.59
2023-02-19T02:53:40.547Z,7.53
2023-02-19T02:56:09.517Z,7.52
2023-02-19T02:58:36.213Z,7.24
2023-02-19T03:01:28.603Z,7.10
2023-02-19T03:04:01.538Z,7.38
2023-02-19T03:06:31.373Z,7.54
2023-02-19T03:09:01.082Z,7.46
2023-02-19T03:11:49.624Z,7.41
2023-02-19T03:14:36.488Z,7.48
2023-02-19T03:17:29.132Z,7.37
2023-02-19T03:19:58.764Z,7.30
2023-02-19T03:22:36.524Z,7.05
2023-02-19T03:25:43.987Z,7.13
2023-02-19T03:28:13.863Z,7.17
2023-02-19T03:30:49.314Z,7.24
2023-02-19T03:33:18.868Z,7.18
2023-02-19T03:36:07.023Z,7.07
2023-02-19T03:38:45.860Z,7.18
2023-02-19T03:41:27.578Z,7.27
2023-02-19T03:44:12.404Z,7.15
2023-02-19T03:46:38.832Z,7.11
2023-02-19T03:49:15.722Z,6.99
2023-02-19T03:51:45.840Z,7.05
2023-02-19T03:54:18.442Z,7.10
2023-02-19T03:56:55.188Z,7.31
2023-02-19T03:59:48.876Z,7.34
2023-02-19T04:02:29.571Z,7.42
2023-02-19T04:05:14.116Z,7.27
2023-02-19T04:07:45.258Z,7.14
2023-02-19T04:10:13.246Z,7.07
2023-02-19T04:15:10.131Z,7.06
2023-02-19T04:17:42.113Z,6.98
2023-02-19T04:20:11.411Z,6.83
2023-02-19T04:22:39.062Z,6.77
2023-02-19T04:25:06.330Z,6.77
2023-02-19T04:27:37.839Z,6.94
2023-02-19T04:30:06.235Z,6.94
2023-02-19T04:32:32.777Z,7.10
2023-02-19T04:34:59.216Z,6.95
2023-02-19T04:37:25.678Z,7.04
2023-02-19T04:39:52.138Z,7.02
2023-02-19T04:42:18.985Z,7.02
2023-02-19T04:44:45.520Z,6.98
2023-02-19T04:47:11.916Z,6.95
2023-02-19T04:49:38.301Z,6.98
2023-02-19T04:52:04.843Z,6.93
2023-02-19T04:54:31.253Z,6.90
2023-02-19T04:56:57.761Z,7.01
2023-02-19T04:59:24.154Z,6.86
2023-02-19T05:01:50.721Z,6.82
2023-02-19T05:04:17.193Z,6.75
2023-02-19T05:06:43.698Z,6.44
2023-02-19T05:09:10.218Z,6.45
2023-02-19T05:11:36.650Z,6.61
2023-02-19T05:14:03.444Z,6.68
2023-02-19T05:16:29.918Z,6.69
2023-02-19T05:18:56.398Z,6.65
2023-02-19T05:21:22.825Z,6.62
2023-02-19T05:23:49.270Z,6.39
2023-02-19T05:26:18.444Z,6.38
2023-02-19T05:28:46.149Z,6.43
2023-02-19T05:31:14.129Z,6.39
2023-02-19T05:33:42.975Z,6.58
2023-02-19T05:36:12.666Z,6.55
2023-02-19T05:38:40.443Z,6.83
2023-02-19T05:41:11.719Z,7.03
2023-02-19T05:43:39.661Z,7.32
2023-02-19T05:46:07.292Z,7.18
2023-02-19T05:48:33.931Z,7.34
2023-02-19T05:51:05.167Z,7.56
2023-02-19T05:53:32.211Z,7.70
2023-02-19T05:55:58.736Z,7.75
2023-02-19T05:58:25.688Z,7.91
2023-02-19T06:00:52.467Z,7.94
2023-02-19T06:03:19.199Z,7.82
2023-02-19T06:05:45.600Z,7.63
2023-02-19T06:08:13.740Z,7.48
2023-02-19T06:10:41.323Z,7.32
2023-02-19T06:13:09.290Z,7.37
2023-02-19T06:15:38.642Z,7.39
2023-02-19T06:18:05.182Z,7.36
2023-02-19T06:20:32.875Z,7.06
2023-02-19T06:22:59.284Z,7.13
2023-02-19T06:25:25.800Z,7.33
2023-02-19T06:27:52.277Z,7.37
2023-02-19T06:30:18.874Z,7.19
2023-02-19T06:32:45.412Z,7.29
2023-02-19T06:35:11.862Z,7.51
2023-02-19T06:37:38.384Z,7.72
2023-02-19T06:40:05.123Z,7.77
2023-02-19T06:42:32.822Z,7.73
2023-02-19T06:44:59.239Z,7.69
2023-02-19T06:47:25.724Z,7.72
2023-02-19T06:49:52.161Z,7.71
2023-02-19T06:52:18.577Z,7.80
2023-02-19T06:54:45.065Z,7.92
2023-02-19T06:57:11.475Z,7.83
2023-02-19T06:59:37.919Z,7.91
2023-02-19T07:02:04.547Z,7.95
2023-02-19T07:04:30.998Z,7.98
2023-02-19T07:06:57.505Z,7.92
2023-02-19T07:09:25.393Z,7.77
2023-02-19T07:11:52.349Z,7.69
2023-02-19T07:14:19.029Z,7.76
2023-02-19T07:16:47.386Z,7.85
2023-02-19T07:19:15.051Z,7.89
2023-02-19T07:21:42.533Z,7.90
2023-02-19T07:24:10.120Z,8.11
2023-02-19T07:26:36.542Z,8.22
2023-02-19T07:29:03.876Z,8.39
2023-02-19T07:31:30.387Z,8.51
2023-02-19T07:33:56.876Z,8.65
2023-02-19T07:36:24.316Z,8.76
2023-02-19T07:38:58.246Z,8.75
2023-02-19T07:41:26.775Z,8.93
2023-02-19T07:43:55.036Z,9.13
2023-02-19T07:46:22.282Z,9.30
2023-02-19T07:48:48.848Z,9.41
2023-02-19T07:51:18.966Z,9.47
2023-02-19T07:53:46.578Z,9.34
2023-02-19T07:56:13.537Z,9.42
2023-02-19T07:58:40.583Z,9.65
2023-02-19T08:01:14.463Z,9.81
2023-02-19T08:03:41.126Z,9.78
2023-02-19T08:06:08.519Z,9.55
2023-02-19T08:08:35.012Z,9.65
2023-02-19T08:11:21.644Z,9.78
2023-02-19T08:13:50.131Z,9.91
2023-02-19T08:16:26.888Z,10.12
2023-02-19T08:19:00.142Z,10.27
2023-02-19T08:21:26.625Z,10.51
2023-02-19T08:23:53.130Z,10.64
2023-02-19T08:26:19.646Z,10.73
2023-02-19T08:28:46.299Z,10.78
2023-02-19T08:31:13.144Z,11.06
2023-02-19T08:33:40.030Z,11.24
2023-02-19T08:36:08.502Z,11.17
2023-02-19T08:38:36.428Z,11.11
2023-02-19T08:41:08.175Z,11.26
2023-02-19T08:43:35.181Z,11.37
2023-02-19T08:46:02.129Z,11.01
2023-02-19T08:48:28.939Z,11.34
2023-02-19T08:50:57.226Z,11.80
2023-02-19T08:53:24.939Z,11.74
2023-02-19T08:55:52.674Z,11.80
2023-02-19T08:58:28.985Z,12.00
2023-02-19T09:00:55.495Z,12.12
2023-02-19T09:03:21.940Z,12.22
2023-02-19T09:05:48.341Z,12.27
2023-02-19T09:08:15.776Z,12.00
2023-02-19T09:10:42.276Z,12.35
2023-02-19T09:13:08.826Z,12.67
2023-02-19T09:15:35.255Z,12.85
2023-02-19T09:18:02.181Z,12.73
2023-02-19T09:20:28.564Z,12.89
2023-02-19T09:22:59.588Z,13.14
2023-02-19T09:25:26.120Z,13.37
2023-02-19T09:27:56.775Z,13.65
2023-02-19T09:30:27.040Z,13.71
2023-02-19T09:32:54.283Z,14.04
2023-02-19T09:35:20.782Z,14.10
2023-02-19T09:37:47.197Z,13.79
2023-02-19T09:40:14.080Z,13.77
2023-02-19T09:42:43.089Z,14.01
2023-02-19T09:45:17.655Z,13.92
2023-02-19T09:47:44.214Z,14.12
2023-02-19T09:50:16.875Z,14.15
2023-02-19T09:52:50.595Z,14.19
2023-02-19T09:55:34.420Z,14.31
2023-02-19T09:58:34.702Z,14.08
2023-02-19T10:01:04.389Z,14.15
2023-02-19T10:03:35.380Z,14.06
2023-02-19T10:06:06.246Z,13.88
2023-02-19T10:08:35.439Z,14.16
2023-02-19T10:11:05.215Z,14.34
2023-02-19T10:13:37.536Z,14.51
2023-02-19T10:16:07.008Z,14.81
2023-02-19T10:18:41.268Z,14.89
2023-02-19T10:21:10.779Z,15.01
2023-02-19T10:23:39.024Z,15.19
2023-02-19T10:26:05.428Z,15.30
2023-02-19T10:28:34.553Z,15.38
2023-02-19T10:31:03.602Z,15.34
2023-02-19T10:33:30.414Z,15.41
2023-02-19T10:36:07.459Z,15.39
2023-02-19T10:38:38.650Z,15.37
2023-02-19T10:41:14.597Z,15.48
2023-02-19T10:43:45.783Z,15.57
2023-02-19T10:46:18.816Z,15.82
2023-02-19T10:48:51.876Z,15.93
2023-02-19T10:51:21.805Z,16.23
2023-02-19T10:53:50.762Z,16.43
2023-02-19T10:56:26.436Z,16.26
2023-02-19T10:58:53.637Z,16.38
2023-02-19T11:01:22.518Z,16.89
2023-02-19T11:03:51.777Z,16.76
2023-02-19T11:06:21.404Z,16.71
2023-02-19T11:08:52.280Z,17.00
2023-02-19T11:11:28.482Z,17.45
2023-02-19T11:13:57.552Z,17.88
2023-02-19T11:16:37.441Z,18.59
2023-02-19T11:19:03.899Z,19.04
2023-02-19T11:21:33.500Z,18.97
2023-02-19T11:24:03.679Z,19.37
2023-02-19T11:26:38.181Z,19.48
2023-02-19T11:29:23.128Z,19.62
2023-02-19T11:31:49.621Z,19.51
2023-02-19T11:34:21.231Z,20.22
2023-02-19T11:37:07.768Z,20.65
2023-02-19T11:39:34.684Z,20.28
2023-02-19T11:42:27.171Z,21.57
2023-02-19T11:45:08.697Z,22.72
2023-02-19T11:48:00.436Z,24.05
2023-02-19T11:51:05.850Z,25.06
2023-02-19T11:53:42.348Z,25.09
2023-02-19T11:56:14.667Z,25.93
2023-02-19T11:58:55.562Z,26.26
2023-02-19T12:02:12.612Z,26.22
2023-02-19T12:05:16.183Z,27.47
2023-02-19T12:07:57.748Z,27.86
2023-02-19T12:10:34.459Z,27.72
2023-02-19T12:13:48.925Z,27.69
2023-02-19T12:16:27.057Z,28.51
2023-02-19T12:18:59.624Z,28.28
2023-02-19T12:21:55.347Z,27.78
2023-02-19T12:24:48.329Z,27.46
2023-02-19T12:27:26.945Z,27.00
2023-02-19T12:30:18.004Z,26.33
2023-02-19T12:32:55.137Z,26.01
2023-02-19T12:35:27.293Z,25.54
2023-02-19T12:38:15.185Z,25.01
2023-02-19T12:41:13.059Z,24.05
2023-02-19T12:43:53.971Z,23.13
2023-02-19T12:46:35.220Z,22.25
2023-02-19T12:49:04.409Z,21.41
2023-02-19T12:51:55.133Z,20.64
2023-02-19T12:54:25.320Z,20.29
2023-02-19T12:57:06.226Z,20.94
2023-02-19T12:59:42.350Z,20.41
2023-02-19T13:02:20.841Z,19.77
2023-02-19T13:04:50.294Z,19.12
2023-02-19T13:07:19.791Z,18.73
2023-02-19T13:09:55.462Z,18.78
2023-02-19T13:12:36.766Z,18.13
2023-02-19T13:15:18.797Z,17.49
2023-02-19T13:17:50.551Z,16.79
2023-02-19T13:20:25.983Z,16.38
2023-02-19T13:23:14.468Z,16.39
2023-02-19T13:26:08.312Z,16.44
2023-02-19T13:29:00.275Z,16.67
2023-02-19T13:32:02.004Z,16.44
2023-02-19T13:34:49.074Z,16.01
2023-02-19T13:37:16.703Z,15.61
2023-02-19T13:39:52.090Z,15.33
2023-02-19T13:42:34.712Z,15.35
2023-02-19T13:45:03.940Z,15.09
2023-02-19T13:47:56.155Z,15.08
2023-02-19T13:50:32.859Z,15.24
2023-02-19T13:53:01.348Z,15.38
2023-02-19T13:55:43.166Z,15.59
2023-02-19T13:59:11.484Z,15.82
2023-02-19T14:01:51.453Z,16.78
2023-02-19T14:04:47.629Z,16.68
2023-02-19T14:07:14.055Z,16.43
2023-02-19T14:09:40.572Z,16.31
2023-02-19T14:12:30.324Z,15.94
2023-02-19T14:14:57.241Z,16.03
2023-02-19T14:17:46.325Z,16.10
2023-02-19T14:20:17.008Z,15.91
2023-02-19T14:22:46.472Z,15.87
2023-02-19T14:25:29.151Z,15.93
2023-02-19T14:28:11.504Z,15.81
2023-02-19T14:30:48.618Z,15.25
2023-02-19T14:33:18.440Z,15.00
2023-02-19T14:35:47.782Z,14.68
2023-02-19T14:38:22.135Z,14.68
2023-02-19T14:40:49.818Z,14.62
2023-02-19T14:43:19.496Z,14.56
2023-02-19T14:45:50.440Z,14.55
2023-02-19T14:48:23.015Z,14.41
2023-02-19T14:50:52.798Z,14.49
2023-02-19T14:53:22.294Z,14.48
2023-02-19T14:55:50.172Z,14.44
2023-02-19T14:58:25.744Z,14.30
2023-02-19T15:00:52.324Z,14.42
2023-02-19T15:03:34.284Z,14.44
2023-02-19T15:06:15.561Z,14.22
2023-02-19T15:08:52.005Z,14.14
2023-02-19T15:11:25.040Z,14.13
2023-02-19T15:13:58.344Z,14.18
2023-02-19T15:16:26.787Z,14.11
2023-02-19T15:18:55.069Z,14.11
2023-02-19T15:21:30.473Z,13.99
2023-02-19T15:23:59.497Z,13.89
2023-02-19T15:26:35.808Z,13.68
2023-02-19T15:29:11.402Z,13.59
2023-02-19T15:31:45.414Z,13.65
2023-02-19T15:34:16.891Z,13.56
2023-02-19T15:36:43.472Z,13.49
2023-02-19T15:39:30.697Z,13.42
2023-02-19T15:42:00.673Z,13.43
2023-02-19T15:44:27.368Z,13.71
2023-02-19T15:46:55.233Z,13.90
2023-02-19T15:49:31.059Z,14.07
2023-02-19T15:52:04.834Z,13.92
2023-02-19T15:54:36.165Z,13.75
2023-02-19T15:57:09.561Z,13.69
2023-02-19T15:59:39.286Z,13.71
2023-02-19T16:02:11.888Z,13.59
2023-02-19T16:04:39.275Z,13.58
2023-02-19T16:07:06.129Z,13.45
2023-02-19T16:09:32.730Z,13.31
2023-02-19T16:12:00.842Z,13.41
2023-02-19T16:14:36.277Z,13.41
2023-02-19T16:17:11.625Z,13.33
2023-02-19T16:19:55.081Z,13.54
2023-02-19T16:22:24.910Z,13.57
2023-02-19T16:24:55.213Z,13.67
2023-02-19T16:27:41.281Z,13.85
2023-02-19T16:30:09.866Z,13.84
2023-02-19T16:32:36.197Z,13.81
2023-02-19T16:35:02.851Z,13.86
2023-02-19T16:37:41.149Z,13.82
2023-02-19T16:40:07.579Z,13.86
2023-02-19T16:42:37.991Z,13.87
2023-02-19T16:45:08.247Z,13.87
2023-02-19T16:47:37.952Z,13.87
2023-02-19T16:50:30.628Z,13.79
2023-02-19T16:52:59.983Z,13.82
2023-02-19T16:55:27.552Z,13.88
2023-02-19T16:57:56.032Z,13.81
2023-02-19T17:00:25.815Z,13.78
2023-02-19T17:02:55.275Z,13.79
2023-02-19T17:05:22.831Z,13.64
2023-02-19T17:07:49.851Z,13.62
2023-02-19T17:10:25.708Z,13.31
2023-02-19T17:12:54.647Z,13.39
2023-02-19T17:15:22.089Z,13.27
2023-02-19T17:17:49.062Z,13.32
2023-02-19T17:20:15.384Z,13.36
2023-02-19T17:22:42.042Z,13.41
2023-02-19T17:25:08.566Z,13.44
2023-02-19T17:27:35.178Z,13.37
2023-02-19T17:30:01.940Z,13.50
2023-02-19T17:32:28.523Z,13.64
2023-02-19T17:34:55.495Z,13.64
2023-02-19T17:37:21.870Z,13.48
2023-02-19T17:39:49.180Z,13.48
2023-02-19T17:42:15.645Z,13.46
2023-02-19T17:44:42.070Z,13.29
2023-02-19T17:47:13.225Z,13.25
2023-02-19T17:49:40.009Z,13.28
2023-02-19T17:52:06.732Z,13.35
2023-02-19T17:54:34.310Z,13.50
2023-02-19T17:57:01.135Z,13.56
2023-02-19T17:59:27.591Z,13.64
2023-02-19T18:01:54.295Z,13.68
2023-02-19T18:04:32.715Z,13.75
2023-02-19T18:06:59.984Z,13.64
2023-02-19T18:09:27.928Z,13.61
2023-02-19T18:11:55.224Z,13.50
2023-02-19T18:14:21.874Z,13.37
2023-02-19T18:16:50.395Z,13.36
2023-02-19T18:19:17.436Z,13.32
2023-02-19T18:21:44.091Z,13.35
2023-02-19T18:24:10.548Z,13.35
2023-02-19T18:26:36.984Z,13.23
2023-02-19T18:29:05.534Z,13.07
2023-02-19T18:31:42.075Z,13.04
2023-02-19T18:34:16.722Z,13.07
2023-02-19T18:36:47.509Z,13.13
2023-02-19T18:39:14.069Z,13.14
2023-02-19T18:41:40.627Z,13.21
2023-02-19T18:44:07.424Z,13.34
2023-02-19T18:46:33.891Z,13.32
2023-02-19T18:49:00.362Z,13.34
2023-02-19T18:51:26.910Z,13.35
2023-02-19T18:53:54.103Z,13.39
2023-02-19T18:56:20.639Z,13.27
2023-02-19T18:58:49.240Z,13.21
2023-02-19T19:01:16.909Z,13.27
2023-02-19T19:03:43.446Z,13.39
2023-02-19T19:06:09.824Z,13.45
2023-02-19T19:08:36.254Z,13.38
2023-02-19T19:11:02.704Z,13.29
2023-02-19T19:13:29.622Z,13.14
2023-02-19T19:15:56.520Z,13.09
2023-02-19T19:18:24.089Z,13.04
2023-02-19T19:20:51.114Z,13.22
2023-02-19T19:23:17.700Z,13.18
2023-02-19T19:25:44.414Z,13.10
2023-02-19T19:28:10.894Z,12.97
2023-02-19T19:30:37.858Z,12.99
2023-02-19T19:33:04.487Z,12.92
2023-02-19T19:35:30.935Z,12.85
2023-02-19T19:37:57.472Z,12.80
2023-02-19T19:40:24.407Z,12.84
2023-02-19T19:42:52.222Z,12.82
2023-02-19T19:45:18.932Z,12.78
2023-02-19T19:47:45.427Z,12.80
2023-02-19T19:50:13.182Z,12.74
2023-02-19T19:52:39.801Z,12.74
2023-02-19T19:55:07.273Z,12.77
2023-02-19T19:57:33.768Z,12.74
2023-02-19T20:00:00.715Z,12.69
2023-02-19T20:02:27.234Z,12.54
2023-02-19T20:04:54.258Z,12.53
2023-02-19T20:07:20.806Z,12.55
2023-02-19T20:09:50.273Z,12.59
2023-02-19T20:12:17.927Z,12.58
2023-02-19T20:14:46.048Z,12.50
2023-02-19T20:17:12.872Z,12.51
2023-02-19T20:19:39.328Z,12.42
2023-02-19T20:22:05.735Z,12.53
2023-02-19T20:24:32.296Z,12.37
2023-02-19T20:27:01.727Z,12.60
2023-02-19T20:29:33.474Z,12.74
2023-02-19T20:32:02.339Z,12.87
2023-02-19T20:34:29.811Z,12.95
2023-02-19T20:36:56.305Z,12.94
2023-02-19T20:39:28.605Z,12.99
2023-02-19T20:41:56.826Z,13.03
2023-02-19T20:44:24.133Z,13.01
2023-02-19T20:46:51.906Z,13.05
2023-02-19T20:49:20.414Z,12.98
2023-02-19T20:52:07.493Z,12.94
2023-02-19T20:54:35.190Z,12.92
2023-02-19T20:57:04.217Z,12.80
2023-02-19T20:59:35.232Z,12.77
2023-02-19T21:02:07.997Z,12.75
2023-02-19T21:04:37.465Z,12.86
2023-02-19T21:07:03.950Z,12.95
2023-02-19T21:09:31.067Z,12.98
2023-02-19T21:11:58.513Z,12.86
2023-02-19T21:14:26.605Z,12.71
2023-02-19T21:16:54.031Z,12.68
2023-02-19T21:19:21.678Z,12.67
2023-02-19T21:21:48.139Z,12.46
2023-02-19T21:24:16.049Z,12.41
2023-02-19T21:26:43.435Z,12.34
2023-02-19T21:29:14.245Z,12.45
2023-02-19T21:31:46.789Z,12.55
2023-02-19T21:34:15.658Z,12.44
2023-02-19T21:36:42.667Z,12.43
2023-02-19T21:39:11.919Z,12.55
2023-02-19T21:41:38.419Z,12.62
2023-02-19T21:44:04.986Z,12.63
2023-02-19T21:46:32.994Z,12.68
2023-02-19T21:49:00.200Z,12.69
2023-02-19T21:51:32.685Z,12.66
2023-02-19T21:53:59.767Z,12.73
2023-02-19T21:56:28.887Z,12.58
2023-02-19T21:58:55.546Z,12.52
2023-02-19T22:01:27.346Z,12.47
2023-02-19T22:03:53.958Z,12.50
2023-02-19T22:06:26.496Z,12.46
2023-02-19T22:08:58.008Z,12.38
2023-02-19T22:11:25.563Z,12.42
2023-02-19T22:13:52.392Z,12.33
2023-02-19T22:16:19.415Z,12.33
2023-02-19T22:18:55.093Z,12.42
2023-02-19T22:21:24.241Z,12.53
2023-02-19T22:23:52.157Z,12.67
2023-02-19T22:26:31.693Z,12.74
2023-02-19T22:28:59.506Z,12.44
2023-02-19T22:31:28.054Z,12.51
2023-02-19T22:33:56.560Z,12.60
2023-02-19T22:36:25.291Z,12.67
2023-02-19T22:38:52.266Z,12.64
2023-02-19T22:41:19.331Z,12.73
2023-02-19T22:43:46.252Z,12.51
2023-02-19T22:46:21.729Z,12.49
2023-02-19T22:48:48.622Z,12.60
2023-02-19T22:51:18.488Z,12.65
2023-02-19T22:53:49.719Z,12.64
2023-02-19T22:56:18.029Z,12.45
2023-02-19T22:58:44.775Z,12.30
2023-02-19T23:01:12.939Z,11.99
2023-02-19T23:03:52.484Z,12.11
2023-02-19T23:06:32.384Z,12.01
2023-02-19T23:09:06.208Z,11.97
2023-02-19T23:11:35.452Z,12.04
2023-02-19T23:14:02.232Z,12.01
2023-02-19T23:16:29.402Z,12.12
2023-02-19T23:18:55.856Z,12.25
2023-02-19T23:21:23.874Z,12.26
2023-02-19T23:23:50.982Z,12.30
2023-02-19T23:26:18.061Z,12.12
2023-02-19T23:28:45.422Z,12.07
2023-02-19T23:31:12.769Z,11.98
2023-02-19T23:33:39.661Z,11.92
2023-02-19T23:36:07.214Z,11.87
2023-02-19T23:38:33.852Z,11.88
2023-02-19T23:41:00.717Z,11.80
2023-02-19T23:43:27.400Z,11.81
2023-02-19T23:45:54.329Z,11.80
2023-02-19T23:48:20.773Z,11.83
2023-02-19T23:50:47.145Z,11.86
2023-02-19T23:53:13.590Z,11.84
2023-02-19T23:55:40.054Z,11.82
2023-02-19T23:58:06.490Z,11.88
